Havelock, Nebraska
Current Conditions -  °F | °C
As of 1:54 AM on Wednesday 26 Nov 2014 (Local Time) from KLNK Reporting Station
Clear Clear  
Wind Chill:   Ceiling: Unl
Heat Index:   Visibility: 10mi
Dew Point:   Wind: 6mph
Humidity: 79%   Direction: 270°W
Pressure: 29.88"   Gusts: NA
Location:  40.8505°N, 96.6337°W
Report Text: KLNK 260754Z 27005KT 10SM CLR 03/00 A2988 RMK AO2 SLP123 T00330000
Loading
Personal Weather Stations






























Interactive Weather Map New forecast layout! Learn more

10-Day Weather Forecast

Advertisements
Track Severe Weather on mobile